Time,TemperatureF,DewpointF,PressureIn,WindDirection,WindDirectionDegrees,WindSpeedMPH,WindSpeedGustMPH,Humidity,HourlyPrecipIn,Conditions,Clouds,dailyrainin,SoftwareType,DateUTC
2013-09-02 00:00:00,66.7,64.0,29.51,NNW,340,0.0,0.0,91,0.00,,,0.04,Wunderground v.1.15,2013-09-02 04:00:00,
2013-09-02 00:05:00,66.8,64.1,29.51,NNW,340,0.0,0.0,91,0.00,,,0.00,Wunderground v.1.15,2013-09-02 04:05:00,
2013-09-02 00:10:00,67.0,64.3,29.51,NNW,340,0.0,0.0,91,0.00,,,0.00,Wunderground v.1.15,2013-09-02 04:10:00,
2013-09-02 00:15:00,67.2,64.5,29.51,NNW,340,0.0,0.0,91,0.00,,,0.00,Wunderground v.1.15,2013-09-02 04:15:00,
2013-09-02 00:20:00,67.3,64.6,29.51,NNW,340,0.0,0.0,91,0.00,,,0.00,Wunderground v.1.15,2013-09-02 04:20:00,
2013-09-02 00:25:00,67.5,64.8,29.51,NNW,340,0.0,0.0,91,0.00,,,0.00,Wunderground v.1.15,2013-09-02 04:25:00,
2013-09-02 00:30:00,67.7,65.0,29.51,NNW,340,0.0,0.0,91,0.00,,,0.00,Wunderground v.1.15,2013-09-02 04:30:00,
2013-09-02 00:40:00,68.1,65.4,29.51,NNW,340,0.0,1.0,91,0.00,,,0.00,Wunderground v.1.15,2013-09-02 04:40:00,
2013-09-02 00:50:00,68.3,65.9,29.51,SSW,200,0.0,0.0,92,0.62,,,0.09,Wunderground v.1.15,2013-09-02 04:50:00,
2013-09-02 01:00:00,67.5,65.4,29.51,SSW,200,1.0,1.0,93,0.24,,,0.17,Wunderground v.1.15,2013-09-02 05:00:00,
2013-09-02 01:10:00,67.0,65.2,29.51,SSW,200,0.0,0.0,94,0.11,,,0.23,Wunderground v.1.15,2013-09-02 05:10:00,
2013-09-02 01:20:00,66.8,65.3,29.51,SSW,200,0.0,1.0,95,0.04,,,0.23,Wunderground v.1.15,2013-09-02 05:20:00,
2013-09-02 01:30:00,67.0,65.8,29.50,SSW,200,0.0,0.0,96,0.00,,,0.23,Wunderground v.1.15,2013-09-02 05:30:00,
2013-09-02 01:40:00,67.0,65.8,29.50,SSW,200,0.0,0.0,96,0.00,,,0.23,Wunderground v.1.15,2013-09-02 05:40:00,
2013-09-02 01:50:00,66.8,65.6,29.50,SSW,200,0.0,0.0,96,0.00,,,0.23,Wunderground v.1.15,2013-09-02 05:50:00,
2013-09-02 01:55:00,66.8,65.6,29.50,SSW,200,0.0,0.0,96,0.00,,,0.23,Wunderground v.1.15,2013-09-02 05:55:00,
2013-09-02 02:00:00,66.8,65.6,29.50,SSW,200,0.0,0.0,96,0.00,,,0.23,Wunderground v.1.15,2013-09-02 06:00:00,
2013-09-02 02:05:00,66.7,65.5,29.50,SSW,200,0.0,0.0,96,0.00,,,0.23,Wunderground v.1.15,2013-09-02 06:05:00,
2013-09-02 02:15:00,66.6,65.4,29.49,SSW,204,0.0,0.0,96,0.00,,,0.23,Wunderground v.1.15,2013-09-02 06:15:00,
2013-09-02 02:20:00,66.5,65.6,29.49,SSW,204,0.0,0.0,97,0.00,,,0.23,Wunderground v.1.15,2013-09-02 06:20:00,
2013-09-02 02:30:00,66.3,65.1,29.49,SSW,204,0.0,0.0,96,0.00,,,0.23,Wunderground v.1.15,2013-09-02 06:30:00,
2013-09-02 02:40:00,65.9,64.7,29.49,NW,311,1.0,1.0,96,0.00,,,0.23,Wunderground v.1.15,2013-09-02 06:40:00,
2013-09-02 02:50:00,65.9,65.0,29.49,NW,311,0.0,0.0,97,0.00,,,0.23,Wunderground v.1.15,2013-09-02 06:50:00,
2013-09-02 03:00:00,66.0,65.1,29.48,NW,311,0.0,0.0,97,0.00,,,0.24,Wunderground v.1.15,2013-09-02 07:00:00,
2013-09-02 03:10:00,65.9,65.0,29.48,NW,311,0.0,0.0,97,0.00,,,0.24,Wunderground v.1.15,2013-09-02 07:10:00,
2013-09-02 03:15:00,65.9,65.0,29.48,NW,311,0.0,0.0,97,0.00,,,0.24,Wunderground v.1.15,2013-09-02 07:15:00,
2013-09-02 03:20:00,65.9,65.0,29.48,NW,311,0.0,0.0,97,0.00,,,0.24,Wunderground v.1.15,2013-09-02 07:20:00,
2013-09-02 03:25:00,65.9,65.0,29.47,NW,311,0.0,0.0,97,0.00,,,0.24,Wunderground v.1.15,2013-09-02 07:25:00,
2013-09-02 03:30:00,65.9,65.0,29.48,NW,311,0.0,0.0,97,0.00,,,0.24,Wunderground v.1.15,2013-09-02 07:30:00,
2013-09-02 03:40:00,66.0,65.1,29.47,NW,311,0.0,0.0,97,0.00,,,0.24,Wunderground v.1.15,2013-09-02 07:40:00,
2013-09-02 03:50:00,66.0,65.1,29.47,NW,311,0.0,0.0,97,0.00,,,0.24,Wunderground v.1.15,2013-09-02 07:50:00,
2013-09-02 03:55:00,66.1,65.2,29.47,NW,311,0.0,0.0,97,0.00,,,0.24,Wunderground v.1.15,2013-09-02 07:55:00,
2013-09-02 04:00:00,66.1,65.2,29.47,NW,311,0.0,0.0,97,0.00,,,0.24,Wunderground v.1.15,2013-09-02 08:00:00,
2013-09-02 04:05:00,66.1,65.2,29.47,NW,311,0.0,0.0,97,0.00,,,0.24,Wunderground v.1.15,2013-09-02 08:05:00,
2013-09-02 04:10:00,66.1,65.2,29.46,NW,311,0.0,0.0,97,0.00,,,0.24,Wunderground v.1.15,2013-09-02 08:10:00,
2013-09-02 04:20:00,66.0,65.1,29.46,NNW,348,1.0,1.0,97,0.00,,,0.24,Wunderground v.1.15,2013-09-02 08:20:00,
2013-09-02 04:30:00,65.7,64.8,29.46,North,350,1.0,1.0,97,0.00,,,0.24,Wunderground v.1.15,2013-09-02 08:30:00,
2013-09-02 04:40:00,65.8,64.9,29.46,NNW,336,1.0,1.0,97,0.00,,,0.24,Wunderground v.1.15,2013-09-02 08:40:00,
2013-09-02 04:50:00,65.9,65.3,29.46,NNW,336,0.0,0.0,98,0.00,,,0.24,Wunderground v.1.15,2013-09-02 08:50:00,
2013-09-02 05:00:00,66.0,65.4,29.46,NNW,336,1.0,1.0,98,0.00,,,0.24,Wunderground v.1.15,2013-09-02 09:00:00,
2013-09-02 05:05:00,66.1,65.5,29.46,NNW,336,0.0,1.0,98,0.00,,,0.24,Wunderground v.1.15,2013-09-02 09:05:00,
2013-09-02 05:10:00,66.1,65.5,29.47,NNW,336,0.0,0.0,98,0.00,,,0.24,Wunderground v.1.15,2013-09-02 09:10:00,
2013-09-02 05:15:00,66.1,65.5,29.47,NNW,336,0.0,0.0,98,0.00,,,0.24,Wunderground v.1.15,2013-09-02 09:15:00,
2013-09-02 05:20:00,66.1,65.5,29.47,NNW,336,0.0,0.0,98,0.00,,,0.24,Wunderground v.1.15,2013-09-02 09:20:00,
2013-09-02 05:25:00,66.1,65.5,29.47,North,350,0.0,0.0,98,0.00,,,0.24,Wunderground v.1.15,2013-09-02 09:25:00,
2013-09-02 05:30:00,66.1,65.5,29.47,North,350,0.0,0.0,98,0.00,,,0.24,Wunderground v.1.15,2013-09-02 09:30:00,
2013-09-02 05:35:00,66.1,65.5,29.47,North,350,0.0,0.0,98,0.00,,,0.24,Wunderground v.1.15,2013-09-02 09:35:00,
2013-09-02 05:40:00,66.1,65.5,29.47,North,350,0.0,0.0,98,0.00,,,0.24,Wunderground v.1.15,2013-09-02 09:40:00,
2013-09-02 05:50:00,66.1,65.5,29.47,North,350,0.0,0.0,98,0.00,,,0.25,Wunderground v.1.15,2013-09-02 09:50:00,
2013-09-02 06:00:00,66.1,65.5,29.47,North,350,0.0,0.0,98,0.06,,,0.26,Wunderground v.1.15,2013-09-02 10:00:00,
2013-09-02 06:05:00,66.1,65.5,29.47,North,350,0.0,0.0,98,0.06,,,0.26,Wunderground v.1.15,2013-09-02 10:05:00,
2013-09-02 06:10:00,66.1,65.5,29.47,North,350,0.0,0.0,98,0.07,,,0.27,Wunderground v.1.15,2013-09-02 10:10:00,
2013-09-02 06:20:00,66.0,65.4,29.47,North,350,0.0,1.0,98,0.06,,,0.28,Wunderground v.1.15,2013-09-02 10:20:00,
2013-09-02 06:25:00,65.9,65.3,29.46,North,350,1.0,1.0,98,0.09,,,0.29,Wunderground v.1.15,2013-09-02 10:25:00,
2013-09-02 06:30:00,65.9,65.3,29.46,North,350,1.0,2.0,98,0.09,,,0.29,Wunderground v.1.15,2013-09-02 10:30:00,
2013-09-02 06:40:00,65.9,65.3,29.47,North,350,1.0,1.0,98,0.04,,,0.29,Wunderground v.1.15,2013-09-02 10:40:00,
2013-09-02 06:45:00,65.9,65.3,29.46,North,350,0.0,1.0,98,0.00,,,0.29,Wunderground v.1.15,2013-09-02 10:45:00,
2013-09-02 06:55:00,65.9,65.3,29.46,North,350,0.0,0.0,98,0.00,,,0.29,Wunderground v.1.15,2013-09-02 10:55:00,
2013-09-02 07:00:00,65.9,65.3,29.46,North,350,1.0,2.0,98,0.00,,,0.30,Wunderground v.1.15,2013-09-02 11:00:00,
2013-09-02 07:10:00,65.9,65.3,29.46,North,350,1.0,1.0,98,0.00,,,0.30,Wunderground v.1.15,2013-09-02 11:10:00,
2013-09-02 07:20:00,65.9,65.3,29.45,North,350,1.0,2.0,98,0.00,,,0.30,Wunderground v.1.15,2013-09-02 11:20:00,
2013-09-02 07:25:00,66.0,65.4,29.45,North,351,1.0,2.0,98,0.00,,,0.30,Wunderground v.1.15,2013-09-02 11:25:00,
2013-09-02 07:35:00,66.1,65.5,29.45,North,355,1.0,2.0,98,0.00,,,0.30,Wunderground v.1.15,2013-09-02 11:35:00,
2013-09-02 07:40:00,66.2,65.6,29.45,North,355,2.0,2.0,98,0.00,,,0.30,Wunderground v.1.15,2013-09-02 11:40:00,
2013-09-02 07:50:00,66.2,65.6,29.45,North,355,1.0,1.0,98,0.00,,,0.30,Wunderground v.1.15,2013-09-02 11:50:00,
2013-09-02 08:00:00,66.3,65.7,29.45,North,355,0.0,0.0,98,0.00,,,0.30,Wunderground v.1.15,2013-09-02 12:00:00,
2013-09-02 08:10:00,66.7,66.1,29.45,North,355,0.0,0.0,98,0.00,,,0.30,Wunderground v.1.15,2013-09-02 12:10:00,
2013-09-02 08:20:00,66.9,66.3,29.45,North,355,0.0,0.0,98,0.00,,,0.30,Wunderground v.1.15,2013-09-02 12:20:00,
2013-09-02 08:30:00,66.9,66.3,29.46,North,355,0.0,0.0,98,0.00,,,0.30,Wunderground v.1.15,2013-09-02 12:30:00,
2013-09-02 08:35:00,66.9,66.3,29.46,North,355,0.0,0.0,98,0.00,,,0.30,Wunderground v.1.15,2013-09-02 12:35:00,
2013-09-02 08:40:00,66.9,66.3,29.46,North,355,0.0,0.0,98,0.00,,,0.30,Wunderground v.1.15,2013-09-02 12:40:00,
2013-09-02 08:50:00,67.0,66.1,29.46,North,355,0.0,0.0,97,0.00,,,0.30,Wunderground v.1.15,2013-09-02 12:50:00,
2013-09-02 09:00:00,67.1,66.5,29.46,North,355,0.0,0.0,98,0.00,,,0.30,Wunderground v.1.15,2013-09-02 13:00:00,
2013-09-02 09:10:00,67.7,66.8,29.47,North,355,0.0,0.0,97,0.00,,,0.30,Wunderground v.1.15,2013-09-02 13:10:00,
2013-09-02 09:15:00,67.8,66.9,29.46,North,355,0.0,0.0,97,0.00,,,0.30,Wunderground v.1.15,2013-09-02 13:15:00,
2013-09-02 09:20:00,67.7,66.8,29.46,North,355,0.0,0.0,97,0.00,,,0.30,Wunderground v.1.15,2013-09-02 13:20:00,
2013-09-02 09:30:00,67.8,66.9,29.46,NNE,13,0.0,0.0,97,0.00,,,0.30,Wunderground v.1.15,2013-09-02 13:30:00,
2013-09-02 09:40:00,67.9,66.7,29.45,South,171,0.0,0.0,96,0.00,,,0.30,Wunderground v.1.15,2013-09-02 13:40:00,
2013-09-02 09:50:00,68.0,66.8,29.45,SSE,161,0.0,0.0,96,0.00,,,0.30,Wunderground v.1.15,2013-09-02 13:50:00,
2013-09-02 10:00:00,68.2,67.0,29.45,SSE,161,0.0,0.0,96,0.00,,,0.30,Wunderground v.1.15,2013-09-02 14:00:00,
2013-09-02 10:10:00,68.4,67.2,29.45,SSE,161,0.0,0.0,96,0.00,,,0.30,Wunderground v.1.15,2013-09-02 14:10:00,
2013-09-02 10:15:00,68.5,67.3,29.45,SSE,161,0.0,0.0,96,0.00,,,0.30,Wunderground v.1.15,2013-09-02 14:15:00,
2013-09-02 10:20:00,68.6,67.4,29.45,SSE,159,0.0,1.0,96,0.00,,,0.30,Wunderground v.1.15,2013-09-02 14:20:00,
2013-09-02 10:30:00,69.1,67.9,29.45,ESE,121,0.0,0.0,96,0.00,,,0.30,Wunderground v.1.15,2013-09-02 14:30:00,
2013-09-02 10:35:00,69.3,68.1,29.45,ESE,121,0.0,1.0,96,0.00,,,0.30,Wunderground v.1.15,2013-09-02 14:35:00,
2013-09-02 10:40:00,69.5,68.3,29.45,South,190,0.0,2.0,96,0.00,,,0.30,Wunderground v.1.15,2013-09-02 14:40:00,
2013-09-02 10:45:00,69.4,67.9,29.45,SSW,193,2.0,2.0,95,0.00,,,0.30,Wunderground v.1.15,2013-09-02 14:45:00,
2013-09-02 10:50:00,69.4,67.9,29.45,South,186,2.0,2.0,95,0.00,,,0.30,Wunderground v.1.15,2013-09-02 14:50:00,
2013-09-02 10:55:00,69.4,67.9,29.45,South,186,1.0,2.0,95,0.00,,,0.30,Wunderground v.1.15,2013-09-02 14:55:00,
2013-09-02 11:00:00,69.4,67.9,29.45,South,186,0.0,0.0,95,0.00,,,0.30,Wunderground v.1.15,2013-09-02 15:00:00,
2013-09-02 11:05:00,69.4,67.9,29.45,South,186,0.0,0.0,95,0.00,,,0.30,Wunderground v.1.15,2013-09-02 15:05:00,
2013-09-02 11:10:00,69.4,67.9,29.45,South,186,0.0,0.0,95,0.00,,,0.30,Wunderground v.1.15,2013-09-02 15:10:00,
2013-09-02 11:20:00,69.4,67.9,29.45,South,178,1.0,2.0,95,0.00,,,0.30,Wunderground v.1.15,2013-09-02 15:20:00,
2013-09-02 11:25:00,69.3,67.8,29.45,SSW,211,1.0,2.0,95,0.00,,,0.30,Wunderground v.1.15,2013-09-02 15:25:00,
2013-09-02 11:30:00,69.4,67.9,29.45,South,185,2.0,2.0,95,0.00,,,0.30,Wunderground v.1.15,2013-09-02 15:30:00,
2013-09-02 11:40:00,69.6,67.8,29.44,South,190,3.0,3.0,94,0.00,,,0.30,Wunderground v.1.15,2013-09-02 15:40:00,
2013-09-02 11:45:00,69.8,68.0,29.44,South,190,2.0,3.0,94,0.00,,,0.30,Wunderground v.1.15,2013-09-02 15:45:00,
2013-09-02 11:50:00,69.9,67.8,29.43,SSW,197,2.0,7.0,93,0.00,,,0.30,Wunderground v.1.15,2013-09-02 15:50:00,
2013-09-02 11:55:00,70.1,67.7,29.43,South,178,4.0,8.0,92,0.00,,,0.30,Wunderground v.1.15,2013-09-02 15:55:00,
2013-09-02 12:00:00,70.4,68.0,29.43,SW,233,4.0,4.0,92,0.00,,,0.30,Wunderground v.1.15,2013-09-02 16:00:00,
2013-09-02 12:10:00,70.9,68.5,29.44,South,180,3.0,4.0,92,0.00,,,0.30,Wunderground v.1.15,2013-09-02 16:10:00,
2013-09-02 12:20:00,71.3,68.5,29.44,SE,135,3.0,4.0,91,0.00,,,0.30,Wunderground v.1.15,2013-09-02 16:20:00,
2013-09-02 12:30:00,71.3,67.9,29.43,South,186,4.0,4.0,89,0.00,,,0.30,Wunderground v.1.15,2013-09-02 16:30:00,
2013-09-02 12:40:00,71.7,68.9,29.43,South,179,3.0,3.0,91,0.00,,,0.30,Wunderground v.1.15,2013-09-02 16:40:00,
2013-09-02 12:50:00,71.9,68.8,29.43,South,174,2.0,2.0,90,0.00,,,0.30,Wunderground v.1.15,2013-09-02 16:50:00,
2013-09-02 12:55:00,71.8,68.4,29.43,ESE,123,2.0,2.0,89,0.00,,,0.30,Wunderground v.1.15,2013-09-02 16:55:00,
2013-09-02 13:00:00,71.8,68.4,29.43,SSE,152,1.0,1.0,89,0.00,,,0.30,Wunderground v.1.15,2013-09-02 17:00:00,
2013-09-02 13:10:00,71.6,68.2,29.43,ESE,112,1.0,1.0,89,0.00,,,0.30,Wunderground v.1.15,2013-09-02 17:10:00,
2013-09-02 13:20:00,71.4,68.3,29.42,SSW,210,1.0,2.0,90,0.00,,,0.30,Wunderground v.1.15,2013-09-02 17:20:00,
2013-09-02 13:30:00,71.8,69.0,29.42,South,176,1.0,1.0,91,0.00,,,0.30,Wunderground v.1.15,2013-09-02 17:30:00,
2013-09-02 13:35:00,71.8,68.4,29.42,SSE,153,1.0,3.0,89,0.00,,,0.30,Wunderground v.1.15,2013-09-02 17:35:00,
2013-09-02 13:40:00,71.6,68.2,29.42,SSW,196,2.0,6.0,89,0.00,,,0.30,Wunderground v.1.15,2013-09-02 17:40:00,
2013-09-02 13:50:00,71.3,68.2,29.41,South,185,3.0,3.0,90,0.00,,,0.30,Wunderground v.1.15,2013-09-02 17:50:00,
2013-09-02 14:00:00,71.5,68.4,29.41,SW,234,5.0,5.0,90,0.00,,,0.30,Wunderground v.1.15,2013-09-02 18:00:00,
2013-09-02 14:05:00,71.7,68.3,29.41,South,191,4.0,5.0,89,0.00,,,0.30,Wunderground v.1.15,2013-09-02 18:05:00,
2013-09-02 14:10:00,71.9,68.5,29.41,South,186,2.0,2.0,89,0.00,,,0.30,Wunderground v.1.15,2013-09-02 18:10:00,
2013-09-02 14:20:00,71.7,68.3,29.40,South,177,2.0,2.0,89,0.00,,,0.30,Wunderground v.1.15,2013-09-02 18:20:00,
2013-09-02 14:30:00,71.9,68.8,29.40,SSE,148,1.0,1.0,90,0.00,,,0.30,Wunderground v.1.15,2013-09-02 18:30:00,
2013-09-02 14:35:00,72.2,69.1,29.40,WSW,243,1.0,1.0,90,0.00,,,0.30,Wunderground v.1.15,2013-09-02 18:35:00,
2013-09-02 14:40:00,72.4,68.6,29.40,South,175,2.0,2.0,88,0.00,,,0.30,Wunderground v.1.15,2013-09-02 18:40:00,
2013-09-02 14:50:00,72.4,68.6,29.40,East,98,3.0,3.0,88,0.00,,,0.30,Wunderground v.1.15,2013-09-02 18:50:00,
2013-09-02 14:55:00,72.6,69.2,29.39,SSW,207,3.0,6.0,89,0.00,,,0.30,Wunderground v.1.15,2013-09-02 18:55:00,
2013-09-02 15:00:00,72.9,69.8,29.39,ESE,109,2.0,2.0,90,0.00,,,0.30,Wunderground v.1.15,2013-09-02 19:00:00,
2013-09-02 15:05:00,73.3,69.9,29.39,South,178,2.0,8.0,89,0.00,,,0.30,Wunderground v.1.15,2013-09-02 19:05:00,
2013-09-02 15:15:00,75.0,70.5,29.39,ESE,108,2.0,5.0,86,0.00,,,0.30,Wunderground v.1.15,2013-09-02 19:15:00,
2013-09-02 15:20:00,74.4,68.5,29.39,South,185,4.0,6.0,82,0.00,,,0.30,Wunderground v.1.15,2013-09-02 19:20:00,
2013-09-02 15:25:00,74.0,69.5,29.39,ESE,119,5.0,6.0,86,0.00,,,0.30,Wunderground v.1.15,2013-09-02 19:25:00,
2013-09-02 15:30:00,74.2,70.1,29.39,SSE,147,3.0,3.0,87,0.00,,,0.30,Wunderground v.1.15,2013-09-02 19:30:00,
2013-09-02 15:35:00,74.0,68.9,29.38,South,186,2.0,3.0,84,0.00,,,0.30,Wunderground v.1.15,2013-09-02 19:35:00,
2013-09-02 15:40:00,73.7,68.6,29.38,SSE,161,3.0,4.0,84,0.00,,,0.30,Wunderground v.1.15,2013-09-02 19:40:00,
2013-09-02 15:45:00,73.8,69.7,29.39,SSW,203,3.0,4.0,87,0.00,,,0.30,Wunderground v.1.15,2013-09-02 19:45:00,
2013-09-02 15:50:00,74.0,69.2,29.39,South,191,4.0,4.0,85,0.00,,,0.30,Wunderground v.1.15,2013-09-02 19:50:00,
2013-09-02 16:00:00,74.0,69.5,29.38,South,186,4.0,4.0,86,0.00,,,0.30,Wunderground v.1.15,2013-09-02 20:00:00,
2013-09-02 16:05:00,74.5,69.7,29.38,SSE,149,4.0,4.0,85,0.00,,,0.30,Wunderground v.1.15,2013-09-02 20:05:00,
2013-09-02 16:10:00,75.1,69.9,29.38,SSE,148,3.0,3.0,84,0.00,,,0.30,Wunderground v.1.15,2013-09-02 20:10:00,
2013-09-02 16:15:00,75.5,69.6,29.38,South,188,3.0,4.0,82,0.00,,,0.30,Wunderground v.1.15,2013-09-02 20:15:00,
2013-09-02 16:20:00,75.9,70.0,29.37,South,169,4.0,4.0,82,0.00,,,0.30,Wunderground v.1.15,2013-09-02 20:20:00,
2013-09-02 16:25:00,75.5,70.0,29.37,SSW,195,3.0,4.0,83,0.00,,,0.30,Wunderground v.1.15,2013-09-02 20:25:00,
2013-09-02 16:35:00,74.4,69.6,29.37,South,189,2.0,3.0,85,0.00,,,0.30,Wunderground v.1.15,2013-09-02 20:35:00,
2013-09-02 16:40:00,73.9,69.4,29.37,ESE,111,2.0,2.0,86,0.00,,,0.30,Wunderground v.1.15,2013-09-02 20:40:00,
2013-09-02 16:45:00,73.8,69.7,29.37,ESE,103,2.0,2.0,87,0.00,,,0.30,Wunderground v.1.15,2013-09-02 20:45:00,
2013-09-02 16:50:00,73.7,69.6,29.37,East,101,2.0,2.0,87,0.00,,,0.30,Wunderground v.1.15,2013-09-02 20:50:00,
2013-09-02 16:55:00,73.5,69.4,29.37,SE,129,1.0,2.0,87,0.00,,,0.30,Wunderground v.1.15,2013-09-02 20:55:00,
2013-09-02 17:00:00,73.2,69.4,29.36,South,180,1.0,1.0,88,0.00,,,0.30,Wunderground v.1.15,2013-09-02 21:00:00,
2013-09-02 17:05:00,73.1,69.0,29.36,East,97,2.0,2.0,87,0.00,,,0.30,Wunderground v.1.15,2013-09-02 21:05:00,
2013-09-02 17:10:00,73.0,69.2,29.36,SE,136,1.0,1.0,88,0.00,,,0.30,Wunderground v.1.15,2013-09-02 21:10:00,
2013-09-02 17:15:00,72.7,68.9,29.36,SE,136,1.0,3.0,88,0.00,,,0.30,Wunderground v.1.15,2013-09-02 21:15:00,
2013-09-02 17:25:00,72.2,68.8,29.36,SE,127,1.0,3.0,89,0.00,,,0.30,Wunderground v.1.15,2013-09-02 21:25:00,
2013-09-02 17:35:00,71.8,68.4,29.36,SSE,161,2.0,5.0,89,0.00,,,0.30,Wunderground v.1.15,2013-09-02 21:35:00,
2013-09-02 17:40:00,71.7,68.3,29.36,SSE,159,2.0,2.0,89,0.00,,,0.30,Wunderground v.1.15,2013-09-02 21:40:00,
2013-09-02 17:45:00,71.6,68.2,29.35,East,92,2.0,2.0,89,0.00,,,0.30,Wunderground v.1.15,2013-09-02 21:45:00,
2013-09-02 17:50:00,71.5,68.4,29.35,ESE,102,1.0,2.0,90,0.00,,,0.30,Wunderground v.1.15,2013-09-02 21:50:00,
2013-09-02 17:55:00,71.5,68.4,29.35,SW,216,1.0,2.0,90,0.00,,,0.30,Wunderground v.1.15,2013-09-02 21:55:00,
2013-09-02 18:00:00,71.5,68.1,29.35,ESE,112,2.0,2.0,89,0.00,,,0.30,Wunderground v.1.15,2013-09-02 22:00:00,
2013-09-02 18:10:00,71.1,68.0,29.35,SE,128,1.0,1.0,90,0.00,,,0.31,Wunderground v.1.15,2013-09-02 22:10:00,
2013-09-02 18:15:00,70.8,68.0,29.35,ESE,122,1.0,1.0,91,0.00,,,0.31,Wunderground v.1.15,2013-09-02 22:15:00,
2013-09-02 18:25:00,70.4,68.0,29.36,South,187,1.0,1.0,92,0.00,,,0.31,Wunderground v.1.15,2013-09-02 22:25:00,
2013-09-02 18:35:00,70.3,67.9,29.36,South,181,1.0,2.0,92,0.00,,,0.31,Wunderground v.1.15,2013-09-02 22:35:00,
2013-09-02 18:45:00,70.2,68.1,29.36,South,178,2.0,6.0,93,0.00,,,0.32,Wunderground v.1.15,2013-09-02 22:45:00,
2013-09-02 18:55:00,69.8,67.7,29.36,WSW,246,2.0,3.0,93,0.00,,,0.32,Wunderground v.1.15,2013-09-02 22:55:00,
2013-09-02 19:00:00,69.4,67.3,29.36,South,185,3.0,3.0,93,0.00,,,0.32,Wunderground v.1.15,2013-09-02 23:00:00,
2013-09-02 19:10:00,69.0,67.2,29.36,South,182,2.0,2.0,94,0.00,,,0.32,Wunderground v.1.15,2013-09-02 23:10:00,
2013-09-02 19:15:00,68.8,67.0,29.36,South,182,2.0,2.0,94,0.00,,,0.32,Wunderground v.1.15,2013-09-02 23:15:00,
2013-09-02 19:20:00,68.6,66.8,29.37,SSW,200,2.0,4.0,94,0.00,,,0.32,Wunderground v.1.15,2013-09-02 23:20:00,
2013-09-02 19:25:00,68.5,67.0,29.37,SSW,212,3.0,7.0,95,0.00,,,0.32,Wunderground v.1.15,2013-09-02 23:25:00,
2013-09-02 19:30:00,68.4,66.9,29.37,SSW,202,2.0,4.0,95,0.00,,,0.32,Wunderground v.1.15,2013-09-02 23:30:00,
2013-09-02 19:35:00,68.3,66.8,29.38,South,179,3.0,4.0,95,0.00,,,0.32,Wunderground v.1.15,2013-09-02 23:35:00,
2013-09-02 19:40:00,68.3,66.8,29.37,South,182,4.0,4.0,95,0.00,,,0.32,Wunderground v.1.15,2013-09-02 23:40:00,
2013-09-02 19:50:00,68.1,66.6,29.37,SSW,198,3.0,4.0,95,0.00,,,0.32,Wunderground v.1.15,2013-09-02 23:50:00,
2013-09-02 19:55:00,68.1,66.6,29.38,South,185,3.0,4.0,95,0.00,,,0.32,Wunderground v.1.15,2013-09-02 23:55:00,
2013-09-02 20:05:00,68.0,66.2,29.38,SW,217,3.0,6.0,94,0.00,,,0.32,Wunderground v.1.15,2013-09-03 00:05:00,
2013-09-02 20:15:00,67.9,66.1,29.38,SSW,204,3.0,3.0,94,0.00,,,0.32,Wunderground v.1.15,2013-09-03 00:15:00,
2013-09-02 20:20:00,67.9,66.4,29.37,SW,217,3.0,3.0,95,0.00,,,0.32,Wunderground v.1.15,2013-09-03 00:20:00,
2013-09-02 20:30:00,67.8,66.3,29.37,South,186,2.0,2.0,95,0.00,,,0.32,Wunderground v.1.15,2013-09-03 00:30:00,
2013-09-02 20:40:00,67.7,66.2,29.36,SE,144,1.0,2.0,95,0.00,,,0.32,Wunderground v.1.15,2013-09-03 00:40:00,
2013-09-02 20:50:00,67.6,66.1,29.36,SE,132,1.0,1.0,95,0.00,,,0.32,Wunderground v.1.15,2013-09-03 00:50:00,
2013-09-02 21:00:00,67.4,65.9,29.37,South,174,3.0,4.0,95,0.00,,,0.32,Wunderground v.1.15,2013-09-03 01:00:00,
2013-09-02 21:10:00,67.3,65.8,29.37,South,190,2.0,2.0,95,0.00,,,0.32,Wunderground v.1.15,2013-09-03 01:10:00,
2013-09-02 21:20:00,67.2,65.7,29.37,South,185,3.0,4.0,95,0.00,,,0.32,Wunderground v.1.15,2013-09-03 01:20:00,
2013-09-02 21:30:00,67.1,65.9,29.37,South,182,1.0,1.0,96,0.00,,,0.32,Wunderground v.1.15,2013-09-03 01:30:00,
2013-09-02 21:40:00,66.9,65.7,29.38,SW,218,1.0,2.0,96,0.00,,,0.32,Wunderground v.1.15,2013-09-03 01:40:00,
2013-09-02 21:50:00,66.8,65.6,29.38,SW,221,0.0,0.0,96,0.00,,,0.32,Wunderground v.1.15,2013-09-03 01:50:00,
2013-09-02 22:00:00,65.9,62.9,29.40,West,278,7.0,7.0,90,0.39,,,0.35,Wunderground v.1.15,2013-09-03 02:00:00,
2013-09-02 22:05:00,65.2,62.5,29.40,WSW,258,7.0,7.0,91,0.23,,,0.38,Wunderground v.1.15,2013-09-03 02:05:00,
2013-09-02 22:15:00,64.2,61.8,29.38,North,11,2.0,3.0,92,0.16,,,0.43,Wunderground v.1.15,2013-09-03 02:15:00,
2013-09-02 22:20:00,64.0,61.9,29.38,North,11,1.0,1.0,93,0.07,,,0.43,Wunderground v.1.15,2013-09-03 02:20:00,
2013-09-02 22:25:00,63.7,61.9,29.38,North,11,0.0,1.0,94,0.04,,,0.43,Wunderground v.1.15,2013-09-03 02:25:00,
2013-09-02 22:30:00,63.6,62.1,29.38,North,11,0.0,0.0,95,0.04,,,0.44,Wunderground v.1.15,2013-09-03 02:30:00,
2013-09-02 22:40:00,63.2,61.7,29.38,SW,218,1.0,1.0,95,0.14,,,0.46,Wunderground v.1.15,2013-09-03 02:40:00,
2013-09-02 22:50:00,63.0,61.8,29.37,WSW,256,0.0,0.0,96,0.06,,,0.47,Wunderground v.1.15,2013-09-03 02:50:00,
2013-09-02 23:00:00,62.9,61.7,29.36,West,261,0.0,0.0,96,0.04,,,0.47,Wunderground v.1.15,2013-09-03 03:00:00,
2013-09-02 23:05:00,62.8,61.6,29.37,West,261,0.0,0.0,96,0.00,,,0.47,Wunderground v.1.15,2013-09-03 03:05:00,
2013-09-02 23:10:00,62.8,61.6,29.38,West,261,0.0,0.0,96,0.00,,,0.47,Wunderground v.1.15,2013-09-03 03:10:00,
2013-09-02 23:20:00,62.7,61.8,29.38,SSW,209,1.0,2.0,97,0.00,,,0.47,Wunderground v.1.15,2013-09-03 03:20:00,
2013-09-02 23:30:00,62.5,61.6,29.38,SSW,209,0.0,0.0,97,0.00,,,0.47,Wunderground v.1.15,2013-09-03 03:30:00,
2013-09-02 23:40:00,62.4,61.5,29.38,SSW,209,0.0,0.0,97,0.00,,,0.47,Wunderground v.1.15,2013-09-03 03:40:00,
2013-09-02 23:45:00,62.4,61.5,29.38,SSW,209,0.0,0.0,97,0.00,,,0.47,Wunderground v.1.15,2013-09-03 03:45:00,
2013-09-02 23:50:00,62.3,61.4,29.38,SSW,209,0.0,0.0,97,0.00,,,0.47,Wunderground v.1.15,2013-09-03 03:50:00,